sensor_id;sensor_type;location;lat;lon;timestamp;pressure;altitude;pressure_sealevel;temperature;humidity
51083;BME280;37131;42.694;23.350;2024-03-02T00:02:00;94921.38;;;7.55;77.17
51083;BME280;37131;42.694;23.350;2024-03-02T00:04:26;94933.72;;;7.52;77.99
51083;BME280;37131;42.694;23.350;2024-03-02T00:06:52;94931.13;;;7.70;77.43
51083;BME280;37131;42.694;23.350;2024-03-02T00:09:19;94927.84;;;7.59;77.57
51083;BME280;37131;42.694;23.350;2024-03-02T00:11:45;94929.97;;;7.64;77.24
51083;BME280;37131;42.694;23.350;2024-03-02T00:14:11;94922.25;;;7.64;77.58
51083;BME280;37131;42.694;23.350;2024-03-02T00:16:37;94928.41;;;7.71;76.70
51083;BME280;37131;42.694;23.350;2024-03-02T00:19:03;94927.69;;;7.61;77.21
51083;BME280;37131;42.694;23.350;2024-03-02T00:21:32;94922.97;;;7.82;76.64
51083;BME280;37131;42.694;23.350;2024-03-02T00:23:58;94918.47;;;7.76;76.81
51083;BME280;37131;42.694;23.350;2024-03-02T00:26:24;94920.19;;;7.68;76.96
51083;BME280;37131;42.694;23.350;2024-03-02T00:28:49;94918.72;;;7.65;78.04
51083;BME280;37131;42.694;23.350;2024-03-02T00:31:19;94924.66;;;7.66;77.08
51083;BME280;37131;42.694;23.350;2024-03-02T00:33:48;94921.25;;;7.57;77.05
51083;BME280;37131;42.694;23.350;2024-03-02T00:36:24;94912.31;;;7.69;77.27
51083;BME280;37131;42.694;23.350;2024-03-02T00:38:53;94924.38;;;7.69;76.91
51083;BME280;37131;42.694;23.350;2024-03-02T00:41:24;94912.69;;;7.74;76.57
51083;BME280;37131;42.694;23.350;2024-03-02T00:46:22;94919.88;;;7.71;76.88
51083;BME280;37131;42.694;23.350;2024-03-02T00:48:56;94921.03;;;7.76;76.63
51083;BME280;37131;42.694;23.350;2024-03-02T00:51:23;94918.00;;;7.81;76.40
51083;BME280;37131;42.694;23.350;2024-03-02T00:53:49;94901.44;;;7.75;76.08
51083;BME280;37131;42.694;23.350;2024-03-02T00:56:15;94910.91;;;7.75;77.15
51083;BME280;37131;42.694;23.350;2024-03-02T00:58:41;94902.41;;;7.74;77.44
51083;BME280;37131;42.694;23.350;2024-03-02T01:01:06;94905.38;;;7.61;77.92
51083;BME280;37131;42.694;23.350;2024-03-02T01:03:33;94904.31;;;7.72;76.86
51083;BME280;37131;42.694;23.350;2024-03-02T01:05:59;94902.19;;;7.68;76.97
51083;BME280;37131;42.694;23.350;2024-03-02T01:08:24;94907.56;;;7.82;77.42
51083;BME280;37131;42.694;23.350;2024-03-02T01:10:51;94911.09;;;7.81;76.92
51083;BME280;37131;42.694;23.350;2024-03-02T01:13:16;94912.69;;;7.82;76.50
51083;BME280;37131;42.694;23.350;2024-03-02T01:15:42;94901.84;;;7.96;75.92
51083;BME280;37131;42.694;23.350;2024-03-02T01:18:07;94893.25;;;8.14;74.89
51083;BME280;37131;42.694;23.350;2024-03-02T01:20:33;94899.03;;;8.16;75.26
51083;BME280;37131;42.694;23.350;2024-03-02T01:22:58;94899.19;;;8.14;75.49
51083;BME280;37131;42.694;23.350;2024-03-02T01:25:23;94893.84;;;8.08;76.19
51083;BME280;37131;42.694;23.350;2024-03-02T01:27:50;94894.00;;;8.06;75.95
51083;BME280;37131;42.694;23.350;2024-03-02T01:30:15;94895.78;;;8.06;76.52
51083;BME280;37131;42.694;23.350;2024-03-02T01:32:41;94895.91;;;7.62;78.64
51083;BME280;37131;42.694;23.350;2024-03-02T01:35:06;94884.50;;;7.39;80.15
51083;BME280;37131;42.694;23.350;2024-03-02T01:37:32;94892.72;;;7.42;79.72
51083;BME280;37131;42.694;23.350;2024-03-02T01:39:58;94885.38;;;7.47;79.77
51083;BME280;37131;42.694;23.350;2024-03-02T01:42:24;94887.88;;;7.39;79.59
51083;BME280;37131;42.694;23.350;2024-03-02T01:44:49;94886.63;;;7.43;80.15
51083;BME280;37131;42.694;23.350;2024-03-02T01:47:14;94881.75;;;7.58;79.44
51083;BME280;37131;42.694;23.350;2024-03-02T01:49:40;94883.91;;;7.45;79.84
51083;BME280;37131;42.694;23.350;2024-03-02T01:52:06;94880.69;;;7.43;80.44
51083;BME280;37131;42.694;23.350;2024-03-02T01:54:32;94878.72;;;7.37;81.31
51083;BME280;37131;42.694;23.350;2024-03-02T01:56:58;94880.03;;;7.41;80.44
51083;BME280;37131;42.694;23.350;2024-03-02T01:59:23;94879.31;;;7.56;80.42
51083;BME280;37131;42.694;23.350;2024-03-02T02:01:49;94881.28;;;7.62;78.62
51083;BME280;37131;42.694;23.350;2024-03-02T02:04:15;94876.28;;;7.35;79.46
51083;BME280;37131;42.694;23.350;2024-03-02T02:06:40;94883.34;;;7.59;79.10
51083;BME280;37131;42.694;23.350;2024-03-02T02:09:06;94879.78;;;7.52;79.42
51083;BME280;37131;42.694;23.350;2024-03-02T02:11:33;94876.25;;;7.53;79.15
51083;BME280;37131;42.694;23.350;2024-03-02T02:13:59;94883.00;;;7.54;79.43
51083;BME280;37131;42.694;23.350;2024-03-02T02:16:24;94879.53;;;7.63;78.81
51083;BME280;37131;42.694;23.350;2024-03-02T02:18:50;94881.47;;;7.69;79.07
51083;BME280;37131;42.694;23.350;2024-03-02T02:21:15;94875.22;;;7.72;78.64
51083;BME280;37131;42.694;23.350;2024-03-02T02:23:40;94871.66;;;7.64;78.09
51083;BME280;37131;42.694;23.350;2024-03-02T02:26:11;94874.72;;;7.68;78.32
51083;BME280;37131;42.694;23.350;2024-03-02T02:28:36;94879.13;;;7.76;77.92
51083;BME280;37131;42.694;23.350;2024-03-02T02:31:02;94872.22;;;7.50;78.63
51083;BME280;37131;42.694;23.350;2024-03-02T02:33:28;94873.97;;;7.50;80.13
51083;BME280;37131;42.694;23.350;2024-03-02T02:35:54;94877.09;;;7.61;78.65
51083;BME280;37131;42.694;23.350;2024-03-02T02:38:19;94877.47;;;7.41;79.61
51083;BME280;37131;42.694;23.350;2024-03-02T02:40:45;94874.84;;;7.32;80.22
51083;BME280;37131;42.694;23.350;2024-03-02T02:43:10;94866.75;;;7.19;80.68
51083;BME280;37131;42.694;23.350;2024-03-02T02:45:36;94863.22;;;7.20;80.77
51083;BME280;37131;42.694;23.350;2024-03-02T02:48:01;94862.66;;;7.09;81.36
51083;BME280;37131;42.694;23.350;2024-03-02T02:50:27;94866.97;;;7.08;81.22
51083;BME280;37131;42.694;23.350;2024-03-02T02:52:53;94874.63;;;7.00;81.94
51083;BME280;37131;42.694;23.350;2024-03-02T02:55:18;94870.34;;;7.09;82.24
51083;BME280;37131;42.694;23.350;2024-03-02T02:57:44;94866.78;;;7.02;81.56
51083;BME280;37131;42.694;23.350;2024-03-02T03:00:13;94871.91;;;7.02;81.87
51083;BME280;37131;42.694;23.350;2024-03-02T03:02:46;94871.31;;;7.08;82.58
51083;BME280;37131;42.694;23.350;2024-03-02T03:05:13;94870.78;;;7.22;81.86
51083;BME280;37131;42.694;23.350;2024-03-02T03:07:39;94874.03;;;7.06;82.48
51083;BME280;37131;42.694;23.350;2024-03-02T03:10:05;94876.16;;;7.11;81.73
51083;BME280;37131;42.694;23.350;2024-03-02T03:12:32;94869.38;;;7.27;80.98
51083;BME280;37131;42.694;23.350;2024-03-02T03:14:57;94874.09;;;7.14;81.71
51083;BME280;37131;42.694;23.350;2024-03-02T03:17:23;94868.06;;;7.23;81.37
51083;BME280;37131;42.694;23.350;2024-03-02T03:19:49;94869.97;;;7.21;82.03
51083;BME280;37131;42.694;23.350;2024-03-02T03:22:15;94872.31;;;7.15;82.34
51083;BME280;37131;42.694;23.350;2024-03-02T03:24:40;94867.91;;;7.25;82.12
51083;BME280;37131;42.694;23.350;2024-03-02T03:27:05;94879.09;;;6.98;83.31
51083;BME280;37131;42.694;23.350;2024-03-02T03:29:31;94879.25;;;6.79;83.89
51083;BME280;37131;42.694;23.350;2024-03-02T03:31:56;94875.81;;;6.88;84.07
51083;BME280;37131;42.694;23.350;2024-03-02T03:34:21;94881.09;;;6.69;84.07
51083;BME280;37131;42.694;23.350;2024-03-02T03:36:47;94871.22;;;6.74;83.95
51083;BME280;37131;42.694;23.350;2024-03-02T03:39:12;94883.72;;;6.77;83.63
51083;BME280;37131;42.694;23.350;2024-03-02T03:41:37;94877.78;;;6.76;84.51
51083;BME280;37131;42.694;23.350;2024-03-02T03:44:03;94871.22;;;6.74;83.63
51083;BME280;37131;42.694;23.350;2024-03-02T03:46:29;94873.63;;;6.75;85.22
51083;BME280;37131;42.694;23.350;2024-03-02T03:48:54;94876.34;;;6.74;85.56
51083;BME280;37131;42.694;23.350;2024-03-02T03:51:21;94871.25;;;6.82;85.11
51083;BME280;37131;42.694;23.350;2024-03-02T03:53:48;94868.47;;;6.93;83.65
51083;BME280;37131;42.694;23.350;2024-03-02T03:56:13;94864.56;;;6.89;83.52
51083;BME280;37131;42.694;23.350;2024-03-02T03:58:39;94873.53;;;6.85;84.66
51083;BME280;37131;42.694;23.350;2024-03-02T04:01:04;94871.31;;;6.90;84.22
51083;BME280;37131;42.694;23.350;2024-03-02T04:03:29;94869.47;;;7.00;83.89
51083;BME280;37131;42.694;23.350;2024-03-02T04:05:55;94870.59;;;6.97;83.98
51083;BME280;37131;42.694;23.350;2024-03-02T04:08:21;94867.34;;;6.95;85.10
51083;BME280;37131;42.694;23.350;2024-03-02T04:10:46;94867.28;;;6.87;85.03
51083;BME280;37131;42.694;23.350;2024-03-02T04:13:12;94866.19;;;6.90;84.96
51083;BME280;37131;42.694;23.350;2024-03-02T04:15:37;94868.75;;;6.90;85.08
51083;BME280;37131;42.694;23.350;2024-03-02T04:18:03;94872.94;;;6.91;84.79
51083;BME280;37131;42.694;23.350;2024-03-02T04:20:28;94872.34;;;6.97;83.94
51083;BME280;37131;42.694;23.350;2024-03-02T04:22:54;94867.16;;;6.89;84.12
51083;BME280;37131;42.694;23.350;2024-03-02T04:25:20;94867.22;;;6.97;83.73
51083;BME280;37131;42.694;23.350;2024-03-02T04:27:45;94878.00;;;7.01;83.13
51083;BME280;37131;42.694;23.350;2024-03-02T04:30:11;94874.09;;;7.14;83.26
51083;BME280;37131;42.694;23.350;2024-03-02T04:32:36;94871.72;;;7.21;82.86
51083;BME280;37131;42.694;23.350;2024-03-02T04:35:02;94873.19;;;7.23;81.95
51083;BME280;37131;42.694;23.350;2024-03-02T04:37:27;94873.56;;;7.37;81.80
51083;BME280;37131;42.694;23.350;2024-03-02T04:39:53;94873.94;;;7.42;81.30
51083;BME280;37131;42.694;23.350;2024-03-02T04:42:18;94880.44;;;7.54;81.20
51083;BME280;37131;42.694;23.350;2024-03-02T04:44:44;94885.75;;;7.35;81.33
51083;BME280;37131;42.694;23.350;2024-03-02T04:47:09;94884.06;;;7.43;80.93
51083;BME280;37131;42.694;23.350;2024-03-02T04:49:34;94881.88;;;7.30;82.14
51083;BME280;37131;42.694;23.350;2024-03-02T04:52:00;94881.22;;;7.28;81.62
51083;BME280;37131;42.694;23.350;2024-03-02T04:54:25;94883.16;;;7.26;82.30
51083;BME280;37131;42.694;23.350;2024-03-02T04:56:51;94886.94;;;7.40;82.91
51083;BME280;37131;42.694;23.350;2024-03-02T04:59:17;94883.69;;;7.38;83.39
51083;BME280;37131;42.694;23.350;2024-03-02T05:01:43;94890.00;;;7.44;83.10
51083;BME280;37131;42.694;23.350;2024-03-02T05:04:09;94885.88;;;7.51;82.61
51083;BME280;37131;42.694;23.350;2024-03-02T05:06:39;94888.09;;;7.46;83.24
51083;BME280;37131;42.694;23.350;2024-03-02T05:09:08;94897.34;;;7.39;82.83
51083;BME280;37131;42.694;23.350;2024-03-02T05:11:34;94896.66;;;7.54;82.50
51083;BME280;37131;42.694;23.350;2024-03-02T05:14:03;94903.41;;;7.55;81.74
51083;BME280;37131;42.694;23.350;2024-03-02T05:16:28;94897.00;;;7.59;81.71
51083;BME280;37131;42.694;23.350;2024-03-02T05:18:54;94900.28;;;7.44;82.69
51083;BME280;37131;42.694;23.350;2024-03-02T05:21:19;94904.34;;;7.28;83.79
51083;BME280;37131;42.694;23.350;2024-03-02T05:23:45;94908.50;;;7.21;84.33
51083;BME280;37131;42.694;23.350;2024-03-02T05:26:10;94911.34;;;7.18;83.54
51083;BME280;37131;42.694;23.350;2024-03-02T05:28:38;94912.97;;;7.02;84.34
51083;BME280;37131;42.694;23.350;2024-03-02T05:31:04;94915.75;;;7.26;83.30
51083;BME280;37131;42.694;23.350;2024-03-02T05:33:30;94916.34;;;7.02;85.49
51083;BME280;37131;42.694;23.350;2024-03-02T05:35:57;94920.53;;;6.85;87.82
51083;BME280;37131;42.694;23.350;2024-03-02T05:38:22;94926.50;;;6.68;86.63
51083;BME280;37131;42.694;23.350;2024-03-02T05:40:48;94927.66;;;6.74;88.24
51083;BME280;37131;42.694;23.350;2024-03-02T05:43:13;94929.41;;;6.55;87.49
51083;BME280;37131;42.694;23.350;2024-03-02T05:45:39;94921.31;;;6.50;88.48
51083;BME280;37131;42.694;23.350;2024-03-02T05:48:08;94935.47;;;6.54;87.99
51083;BME280;37131;42.694;23.350;2024-03-02T05:50:34;94929.84;;;6.51;89.43
51083;BME280;37131;42.694;23.350;2024-03-02T05:53:00;94930.56;;;6.43;88.87
51083;BME280;37131;42.694;23.350;2024-03-02T05:55:25;94935.81;;;6.42;89.06
51083;BME280;37131;42.694;23.350;2024-03-02T05:57:50;94935.19;;;6.57;88.46
51083;BME280;37131;42.694;23.350;2024-03-02T06:00:22;94938.28;;;6.34;88.70
51083;BME280;37131;42.694;23.350;2024-03-02T06:02:47;94940.72;;;6.35;90.90
51083;BME280;37131;42.694;23.350;2024-03-02T06:05:13;94939.47;;;6.39;90.09
51083;BME280;37131;42.694;23.350;2024-03-02T06:07:40;94937.19;;;6.36;89.78
51083;BME280;37131;42.694;23.350;2024-03-02T06:10:05;94935.31;;;6.38;89.51
51083;BME280;37131;42.694;23.350;2024-03-02T06:12:32;94935.41;;;6.46;90.06
51083;BME280;37131;42.694;23.350;2024-03-02T06:14:58;94940.75;;;6.53;90.18
51083;BME280;37131;42.694;23.350;2024-03-02T06:17:23;94941.28;;;6.56;88.88
51083;BME280;37131;42.694;23.350;2024-03-02T06:19:48;94936.59;;;6.70;89.46
51083;BME280;37131;42.694;23.350;2024-03-02T06:22:14;94939.22;;;6.60;88.72
51083;BME280;37131;42.694;23.350;2024-03-02T06:24:39;94941.50;;;6.63;89.60
51083;BME280;37131;42.694;23.350;2024-03-02T06:27:05;94945.47;;;6.75;87.89
51083;BME280;37131;42.694;23.350;2024-03-02T06:29:33;94939.31;;;6.68;87.96
51083;BME280;37131;42.694;23.350;2024-03-02T06:31:59;94945.59;;;6.56;89.30
51083;BME280;37131;42.694;23.350;2024-03-02T06:34:25;94949.84;;;6.47;89.92
51083;BME280;37131;42.694;23.350;2024-03-02T06:36:50;94944.38;;;6.60;90.13
51083;BME280;37131;42.694;23.350;2024-03-02T06:39:16;94953.19;;;6.75;88.79
51083;BME280;37131;42.694;23.350;2024-03-02T06:41:41;94948.09;;;6.83;89.26
51083;BME280;37131;42.694;23.350;2024-03-02T06:44:07;94949.19;;;6.81;88.10
51083;BME280;37131;42.694;23.350;2024-03-02T06:46:33;94949.63;;;6.58;89.30
51083;BME280;37131;42.694;23.350;2024-03-02T06:48:58;94947.38;;;6.73;88.87
51083;BME280;37131;42.694;23.350;2024-03-02T06:51:24;94952.06;;;6.78;89.20
51083;BME280;37131;42.694;23.350;2024-03-02T06:53:49;94949.34;;;6.79;88.51
51083;BME280;37131;42.694;23.350;2024-03-02T06:56:14;94956.25;;;6.79;89.27
51083;BME280;37131;42.694;23.350;2024-03-02T06:58:40;94957.13;;;6.70;89.41
51083;BME280;37131;42.694;23.350;2024-03-02T07:01:05;94957.84;;;6.62;89.19
51083;BME280;37131;42.694;23.350;2024-03-02T07:03:30;94960.38;;;6.72;89.16
51083;BME280;37131;42.694;23.350;2024-03-02T07:05:56;94966.44;;;6.88;88.17
51083;BME280;37131;42.694;23.350;2024-03-02T07:08:22;94960.66;;;7.04;88.17
51083;BME280;37131;42.694;23.350;2024-03-02T07:10:47;94970.69;;;6.97;87.69
51083;BME280;37131;42.694;23.350;2024-03-02T07:13:13;94961.69;;;6.93;87.96
51083;BME280;37131;42.694;23.350;2024-03-02T07:15:38;94970.84;;;6.96;87.98
51083;BME280;37131;42.694;23.350;2024-03-02T07:18:22;94971.97;;;7.11;88.22
51083;BME280;37131;42.694;23.350;2024-03-02T07:20:47;94968.00;;;6.99;87.60
51083;BME280;37131;42.694;23.350;2024-03-02T07:23:14;94966.22;;;7.17;87.90
51083;BME280;37131;42.694;23.350;2024-03-02T07:25:39;94969.81;;;7.07;87.62
51083;BME280;37131;42.694;23.350;2024-03-02T07:28:05;94972.31;;;7.16;87.10
51083;BME280;37131;42.694;23.350;2024-03-02T07:30:32;94974.28;;;6.87;88.14
51083;BME280;37131;42.694;23.350;2024-03-02T07:32:57;94973.03;;;6.91;88.52
51083;BME280;37131;42.694;23.350;2024-03-02T07:35:23;94983.03;;;7.12;86.94
51083;BME280;37131;42.694;23.350;2024-03-02T07:37:53;94978.03;;;6.92;88.20
51083;BME280;37131;42.694;23.350;2024-03-02T07:40:19;94976.78;;;6.96;88.35
51083;BME280;37131;42.694;23.350;2024-03-02T07:42:45;94982.22;;;6.93;87.92
51083;BME280;37131;42.694;23.350;2024-03-02T07:45:11;94981.91;;;6.96;87.41
51083;BME280;37131;42.694;23.350;2024-03-02T07:47:36;94983.09;;;6.84;88.32
51083;BME280;37131;42.694;23.350;2024-03-02T07:50:02;94984.03;;;6.83;88.24
51083;BME280;37131;42.694;23.350;2024-03-02T07:52:31;94984.78;;;6.93;88.01
51083;BME280;37131;42.694;23.350;2024-03-02T07:54:56;94988.59;;;6.89;88.23
51083;BME280;37131;42.694;23.350;2024-03-02T07:57:24;94992.53;;;6.84;89.06
51083;BME280;37131;42.694;23.350;2024-03-02T07:59:50;94989.34;;;7.00;88.09
51083;BME280;37131;42.694;23.350;2024-03-02T08:02:15;94989.97;;;6.84;89.05
51083;BME280;37131;42.694;23.350;2024-03-02T08:04:41;94992.91;;;6.89;88.79
51083;BME280;37131;42.694;23.350;2024-03-02T08:07:06;94992.91;;;6.89;88.15
51083;BME280;37131;42.694;23.350;2024-03-02T08:09:32;94993.06;;;6.87;89.46
51083;BME280;37131;42.694;23.350;2024-03-02T08:11:57;94997.25;;;6.88;88.38
51083;BME280;37131;42.694;23.350;2024-03-02T08:14:23;94996.53;;;6.96;89.18
51083;BME280;37131;42.694;23.350;2024-03-02T08:16:49;94998.00;;;6.98;88.22
51083;BME280;37131;42.694;23.350;2024-03-02T08:19:14;94995.88;;;7.12;87.78
51083;BME280;37131;42.694;23.350;2024-03-02T08:21:40;95000.94;;;7.21;88.30
51083;BME280;37131;42.694;23.350;2024-03-02T08:24:06;94996.88;;;7.37;88.17
51083;BME280;37131;42.694;23.350;2024-03-02T08:26:32;95000.47;;;7.44;87.32
51083;BME280;37131;42.694;23.350;2024-03-02T08:28:58;94992.38;;;7.56;86.00
51083;BME280;37131;42.694;23.350;2024-03-02T08:31:24;94996.28;;;7.43;86.78
51083;BME280;37131;42.694;23.350;2024-03-02T08:33:49;94991.38;;;7.31;87.54
51083;BME280;37131;42.694;23.350;2024-03-02T08:36:15;94991.22;;;7.51;86.17
51083;BME280;37131;42.694;23.350;2024-03-02T08:38:41;94990.38;;;7.68;86.75
51083;BME280;37131;42.694;23.350;2024-03-02T08:41:06;94992.75;;;7.87;85.25
51083;BME280;37131;42.694;23.350;2024-03-02T08:43:32;94982.00;;;7.92;85.35
51083;BME280;37131;42.694;23.350;2024-03-02T08:45:58;94986.75;;;7.79;84.92
51083;BME280;37131;42.694;23.350;2024-03-02T08:48:23;94986.38;;;8.00;85.05
51083;BME280;37131;42.694;23.350;2024-03-02T08:50:49;94994.88;;;7.66;85.20
51083;BME280;37131;42.694;23.350;2024-03-02T08:53:14;94993.25;;;7.91;85.35
51083;BME280;37131;42.694;23.350;2024-03-02T08:55:45;94989.22;;;8.14;84.74
51083;BME280;37131;42.694;23.350;2024-03-02T08:58:10;94994.47;;;8.39;83.97
51083;BME280;37131;42.694;23.350;2024-03-02T09:00:36;94986.66;;;8.48;83.56
51083;BME280;37131;42.694;23.350;2024-03-02T09:03:01;94994.06;;;8.51;82.60
51083;BME280;37131;42.694;23.350;2024-03-02T09:05:27;94992.19;;;8.27;83.39
51083;BME280;37131;42.694;23.350;2024-03-02T09:07:52;94997.66;;;8.33;82.80
51083;BME280;37131;42.694;23.350;2024-03-02T09:10:17;94990.97;;;8.48;82.76
51083;BME280;37131;42.694;23.350;2024-03-02T09:12:43;94999.09;;;8.61;81.58
51083;BME280;37131;42.694;23.350;2024-03-02T09:15:08;95004.59;;;8.74;81.82
51083;BME280;37131;42.694;23.350;2024-03-02T09:17:34;95003.66;;;8.83;80.99
51083;BME280;37131;42.694;23.350;2024-03-02T09:19:59;95004.19;;;8.19;84.17
51083;BME280;37131;42.694;23.350;2024-03-02T09:22:25;95004.53;;;8.32;82.28
51083;BME280;37131;42.694;23.350;2024-03-02T09:24:50;95005.28;;;8.42;83.51
51083;BME280;37131;42.694;23.350;2024-03-02T09:27:15;95012.16;;;8.68;82.68
51083;BME280;37131;42.694;23.350;2024-03-02T09:29:41;95007.69;;;8.44;81.74
51083;BME280;37131;42.694;23.350;2024-03-02T09:32:12;95007.53;;;8.45;82.10
51083;BME280;37131;42.694;23.350;2024-03-02T09:34:37;95009.13;;;8.12;83.75
51083;BME280;37131;42.694;23.350;2024-03-02T09:37:03;95018.28;;;7.89;85.08
51083;BME280;37131;42.694;23.350;2024-03-02T09:39:29;95007.34;;;7.87;84.29
51083;BME280;37131;42.694;23.350;2024-03-02T09:41:55;95013.81;;;7.91;84.69
51083;BME280;37131;42.694;23.350;2024-03-02T09:44:21;95016.66;;;7.80;85.40
51083;BME280;37131;42.694;23.350;2024-03-02T09:46:50;95017.59;;;8.05;83.71
51083;BME280;37131;42.694;23.350;2024-03-02T09:49:16;95017.53;;;7.96;83.90
51083;BME280;37131;42.694;23.350;2024-03-02T09:51:47;95010.69;;;8.05;84.14
51083;BME280;37131;42.694;23.350;2024-03-02T09:54:12;95016.25;;;8.18;83.67
51083;BME280;37131;42.694;23.350;2024-03-02T09:56:38;95014.53;;;8.27;83.14
51083;BME280;37131;42.694;23.350;2024-03-02T09:59:04;95012.94;;;8.34;82.36
51083;BME280;37131;42.694;23.350;2024-03-02T10:01:30;95018.53;;;8.55;81.66
51083;BME280;37131;42.694;23.350;2024-03-02T10:03:59;95015.69;;;8.67;80.52
51083;BME280;37131;42.694;23.350;2024-03-02T10:06:26;95021.59;;;8.25;82.36
51083;BME280;37131;42.694;23.350;2024-03-02T10:08:52;95018.56;;;8.04;83.89
51083;BME280;37131;42.694;23.350;2024-03-02T10:11:31;95012.81;;;8.36;82.94
51083;BME280;37131;42.694;23.350;2024-03-02T10:14:05;95018.97;;;8.51;82.66
51083;BME280;37131;42.694;23.350;2024-03-02T10:16:35;95014.31;;;8.20;83.44
51083;BME280;37131;42.694;23.350;2024-03-02T10:19:18;95015.78;;;8.23;83.46
51083;BME280;37131;42.694;23.350;2024-03-02T10:21:48;95013.88;;;8.25;84.26
51083;BME280;37131;42.694;23.350;2024-03-02T10:24:15;95009.63;;;8.16;84.04
51083;BME280;37131;42.694;23.350;2024-03-02T10:26:40;95015.81;;;8.31;83.72
51083;BME280;37131;42.694;23.350;2024-03-02T10:29:08;95015.13;;;8.21;83.84
51083;BME280;37131;42.694;23.350;2024-03-02T10:31:34;95018.19;;;7.98;83.88
51083;BME280;37131;42.694;23.350;2024-03-02T10:34:00;95012.69;;;7.93;84.23
51083;BME280;37131;42.694;23.350;2024-03-02T10:36:28;95012.59;;;8.03;84.52
51083;BME280;37131;42.694;23.350;2024-03-02T10:38:56;95008.16;;;8.13;84.36
51083;BME280;37131;42.694;23.350;2024-03-02T10:41:26;95006.81;;;8.27;83.92
51083;BME280;37131;42.694;23.350;2024-03-02T10:43:52;95011.44;;;8.23;84.41
51083;BME280;37131;42.694;23.350;2024-03-02T10:46:27;95003.50;;;8.43;83.59
51083;BME280;37131;42.694;23.350;2024-03-02T10:48:54;95004.03;;;8.54;83.62
51083;BME280;37131;42.694;23.350;2024-03-02T10:51:19;95002.09;;;8.48;83.09
51083;BME280;37131;42.694;23.350;2024-03-02T10:53:45;95005.63;;;8.47;82.97
51083;BME280;37131;42.694;23.350;2024-03-02T10:56:16;94996.47;;;8.53;84.10
51083;BME280;37131;42.694;23.350;2024-03-02T10:58:50;95002.03;;;8.06;84.94
51083;BME280;37131;42.694;23.350;2024-03-02T11:01:17;95001.47;;;7.94;84.95
51083;BME280;37131;42.694;23.350;2024-03-02T11:03:44;94997.59;;;8.16;84.82
51083;BME280;37131;42.694;23.350;2024-03-02T11:06:11;95001.75;;;8.43;83.55
51083;BME280;37131;42.694;23.350;2024-03-02T11:08:38;94999.59;;;8.65;83.13
51083;BME280;37131;42.694;23.350;2024-03-02T11:11:18;94996.00;;;8.57;82.92
51083;BME280;37131;42.694;23.350;2024-03-02T11:13:49;94994.75;;;8.61;82.85
51083;BME280;37131;42.694;23.350;2024-03-02T11:16:34;94990.94;;;8.74;81.48
51083;BME280;37131;42.694;23.350;2024-03-02T11:19:08;94996.72;;;8.84;81.35
51083;BME280;37131;42.694;23.350;2024-03-02T11:21:35;94993.47;;;8.66;81.99
51083;BME280;37131;42.694;23.350;2024-03-02T11:26:46;94985.63;;;8.33;83.17
51083;BME280;37131;42.694;23.350;2024-03-02T11:32:13;94991.69;;;8.24;83.79
51083;BME280;37131;42.694;23.350;2024-03-02T11:34:41;94988.56;;;8.12;84.95
51083;BME280;37131;42.694;23.350;2024-03-02T11:37:15;94989.66;;;8.10;85.50
51083;BME280;37131;42.694;23.350;2024-03-02T11:39:42;94980.88;;;8.20;85.23
51083;BME280;37131;42.694;23.350;2024-03-02T11:42:08;94982.25;;;8.07;84.61
51083;BME280;37131;42.694;23.350;2024-03-02T11:44:35;94989.91;;;7.98;85.44
51083;BME280;37131;42.694;23.350;2024-03-02T11:47:05;94989.06;;;8.16;84.94
51083;BME280;37131;42.694;23.350;2024-03-02T11:52:04;94997.94;;;8.21;83.89
51083;BME280;37131;42.694;23.350;2024-03-02T11:54:32;94992.47;;;8.24;83.70
51083;BME280;37131;42.694;23.350;2024-03-02T11:57:01;94985.47;;;8.35;83.45
51083;BME280;37131;42.694;23.350;2024-03-02T11:59:28;94987.94;;;8.18;82.86
51083;BME280;37131;42.694;23.350;2024-03-02T12:01:54;94987.34;;;8.24;85.20
51083;BME280;37131;42.694;23.350;2024-03-02T12:04:21;94987.84;;;8.28;83.42
51083;BME280;37131;42.694;23.350;2024-03-02T12:06:54;94980.81;;;8.38;83.58
51083;BME280;37131;42.694;23.350;2024-03-02T12:09:21;94985.53;;;8.17;83.78
51083;BME280;37131;42.694;23.350;2024-03-02T12:11:46;94981.38;;;8.24;83.56
51083;BME280;37131;42.694;23.350;2024-03-02T12:14:11;94983.41;;;8.12;83.30
51083;BME280;37131;42.694;23.350;2024-03-02T12:16:43;94982.91;;;8.09;83.03
51083;BME280;37131;42.694;23.350;2024-03-02T12:19:09;94982.69;;;8.28;82.28
51083;BME280;37131;42.694;23.350;2024-03-02T12:21:34;94982.16;;;8.50;81.33
51083;BME280;37131;42.694;23.350;2024-03-02T12:24:01;94988.03;;;8.77;81.08
51083;BME280;37131;42.694;23.350;2024-03-02T12:26:27;94989.41;;;8.55;80.77
51083;BME280;37131;42.694;23.350;2024-03-02T12:28:52;94980.28;;;8.26;82.03
51083;BME280;37131;42.694;23.350;2024-03-02T12:31:18;94982.84;;;8.26;82.60
51083;BME280;37131;42.694;23.350;2024-03-02T12:33:43;94983.03;;;8.33;82.43
51083;BME280;37131;42.694;23.350;2024-03-02T12:36:09;94986.41;;;8.68;81.70
51083;BME280;37131;42.694;23.350;2024-03-02T12:38:37;94982.09;;;8.76;81.22
51083;BME280;37131;42.694;23.350;2024-03-02T12:41:02;94982.88;;;8.85;80.23
51083;BME280;37131;42.694;23.350;2024-03-02T12:43:31;94984.97;;;8.73;81.41
51083;BME280;37131;42.694;23.350;2024-03-02T12:45:57;94989.84;;;9.01;80.66
51083;BME280;37131;42.694;23.350;2024-03-02T12:48:23;94982.63;;;9.04;79.78
51083;BME280;37131;42.694;23.350;2024-03-02T12:50:49;94986.50;;;9.24;79.94
51083;BME280;37131;42.694;23.350;2024-03-02T12:53:15;94989.72;;;9.10;78.87
51083;BME280;37131;42.694;23.350;2024-03-02T12:55:41;94989.88;;;9.17;78.60
51083;BME280;37131;42.694;23.350;2024-03-02T12:58:07;94993.13;;;9.35;77.22
51083;BME280;37131;42.694;23.350;2024-03-02T13:00:32;94989.72;;;9.10;78.42
51083;BME280;37131;42.694;23.350;2024-03-02T13:03:00;94988.44;;;9.22;77.87
51083;BME280;37131;42.694;23.350;2024-03-02T13:05:32;94994.25;;;9.24;77.46
51083;BME280;37131;42.694;23.350;2024-03-02T13:07:58;94989.56;;;9.28;78.16